Time;durP1;ratioP1;P1;durP2;ratioP2;P2;SDS_P1;SDS_P2;PMS_P1;PMS_P2;Temp;Humidity;BMP_temperature;BMP_pressure;BME280_temperature;BME280_humidity;BME280_pressure;Samples;Min_cycle;Max_cycle;Signal;HPM_P1;HPM_P2
2023/03/02 00:02:13;;;;;;;12.83;1.80;;;;;;;;;;6128726;23;20080;-41
2023/03/02 00:04:43;;;;;;;8.05;1.55;;;;;;;;;;6124091;23;20272;-41
2023/03/02 00:07:13;;;;;;;8.32;2.10;;;;;;;;;;6120835;23;20213;-40
2023/03/02 00:09:44;;;;;;;8.75;2.13;;;;;;;;;;6120153;23;20017;-40
2023/03/02 00:12:11;;;;;;;7.18;1.52;;;;;;;;;;6126115;23;20017;-42
2023/03/02 00:14:39;;;;;;;10.87;1.90;;;;;;;;;;6125498;23;20017;-42
2023/03/02 00:17:09;;;;;;;9.95;1.80;;;;;;;;;;6122959;23;20045;-42
2023/03/02 00:19:37;;;;;;;14.57;1.83;;;;;;;;;;6131576;23;20089;-40
2023/03/02 00:22:05;;;;;;;9.93;1.90;;;;;;;;;;6127836;23;20519;-40
2023/03/02 00:24:33;;;;;;;10.73;1.63;;;;;;;;;;6124416;23;20018;-42
2023/03/02 00:27:02;;;;;;;7.47;1.87;;;;;;;;;;6124362;23;20017;-44
2023/03/02 00:29:30;;;;;;;6.57;1.50;;;;;;;;;;6126118;23;20076;-42
2023/03/02 00:31:58;;;;;;;9.73;2.15;;;;;;;;;;6116033;23;20021;-41
2023/03/02 00:34:25;;;;;;;9.23;2.00;;;;;;;;;;6130649;23;20021;-41
2023/03/02 00:36:53;;;;;;;8.82;1.92;;;;;;;;;;6121119;23;20025;-40
2023/03/02 00:39:21;;;;;;;7.20;1.93;;;;;;;;;;6131885;23;20056;-43
2023/03/02 00:41:48;;;;;;;13.25;2.33;;;;;;;;;;6121593;23;20092;-41
2023/03/02 00:44:17;;;;;;;9.95;2.22;;;;;;;;;;6126340;23;20514;-41
2023/03/02 00:46:45;;;;;;;7.40;2.17;;;;;;;;;;6132829;23;20955;-43
2023/03/02 00:49:12;;;;;;;8.15;2.45;;;;;;;;;;6123808;23;20026;-41
2023/03/02 00:51:40;;;;;;;8.33;2.30;;;;;;;;;;6123652;23;20026;-42
2023/03/02 00:54:08;;;;;;;8.63;2.03;;;;;;;;;;6123842;23;20037;-44
2023/03/02 00:56:35;;;;;;;9.02;2.28;;;;;;;;;;6132519;23;20048;-41
2023/03/02 00:59:17;;;;;;;8.02;1.92;;;;;;;;;;6125615;23;20395;-42
2023/03/02 01:01:56;;;;;;;10.18;2.58;;;;;;;;;;6132206;23;20060;-42
2023/03/02 01:04:28;;;;;;;10.47;2.37;;;;;;;;;;6129808;23;20048;-40
2023/03/02 01:06:56;;;;;;;9.48;2.25;;;;;;;;;;6127638;23;20260;-41
2023/03/02 01:09:24;;;;;;;10.18;2.90;;;;;;;;;;6130441;23;20013;-43
2023/03/02 01:11:52;;;;;;;11.45;2.20;;;;;;;;;;6125192;23;20062;-43
2023/03/02 01:14:20;;;;;;;8.02;2.20;;;;;;;;;;6132524;23;20041;-44
2023/03/02 01:16:49;;;;;;;9.80;2.10;;;;;;;;;;6121284;23;20021;-45
2023/03/02 01:19:17;;;;;;;11.95;2.70;;;;;;;;;;6126448;23;20025;-45
2023/03/02 01:21:44;;;;;;;9.70;2.40;;;;;;;;;;6130920;23;20022;-44
2023/03/02 01:24:12;;;;;;;11.02;2.53;;;;;;;;;;6128538;23;20092;-42
2023/03/02 01:26:40;;;;;;;10.68;3.05;;;;;;;;;;6128826;23;20021;-46
2023/03/02 01:29:07;;;;;;;10.20;2.77;;;;;;;;;;6124133;23;20021;-42
2023/03/02 01:31:35;;;;;;;10.25;2.67;;;;;;;;;;6129922;23;20080;-43
2023/03/02 01:34:04;;;;;;;10.05;2.63;;;;;;;;;;6122712;23;20344;-43
2023/03/02 01:36:32;;;;;;;11.02;2.72;;;;;;;;;;6133482;23;20356;-44
2023/03/02 01:39:00;;;;;;;9.48;2.92;;;;;;;;;;6126512;23;20481;-44
2023/03/02 01:41:28;;;;;;;9.73;2.77;;;;;;;;;;6116055;23;20025;-42
2023/03/02 01:43:56;;;;;;;7.97;2.67;;;;;;;;;;6129132;23;20018;-42
2023/03/02 01:46:24;;;;;;;11.68;2.88;;;;;;;;;;6126580;23;20061;-42
2023/03/02 01:48:55;;;;;;;11.13;2.95;;;;;;;;;;6129814;23;20044;-44
2023/03/02 01:51:25;;;;;;;10.85;3.00;;;;;;;;;;6130988;23;20010;-42
2023/03/02 01:53:58;;;;;;;10.67;3.13;;;;;;;;;;6132244;23;20044;-43
2023/03/02 01:56:28;;;;;;;10.52;2.47;;;;;;;;;;6133451;23;20079;-44
2023/03/02 01:59:00;;;;;;;10.43;3.13;;;;;;;;;;6127920;23;20022;-42
2023/03/02 02:01:28;;;;;;;12.13;3.10;;;;;;;;;;6107406;23;20092;-44
2023/03/02 02:03:56;;;;;;;8.45;2.60;;;;;;;;;;6128797;23;20384;-44
2023/03/02 02:06:28;;;;;;;13.03;3.13;;;;;;;;;;6131279;23;20018;-44
2023/03/02 02:08:58;;;;;;;10.73;2.88;;;;;;;;;;6127525;23;20440;-44
2023/03/02 02:11:25;;;;;;;10.15;3.47;;;;;;;;;;6132066;23;20017;-43
2023/03/02 02:13:53;;;;;;;12.50;2.92;;;;;;;;;;6124712;23;20452;-42
2023/03/02 02:16:22;;;;;;;11.60;3.13;;;;;;;;;;6131541;23;20339;-43
2023/03/02 02:18:49;;;;;;;9.13;3.10;;;;;;;;;;6122892;23;20021;-42
2023/03/02 02:21:17;;;;;;;12.13;2.63;;;;;;;;;;6127111;23;20040;-42
2023/03/02 02:23:50;;;;;;;11.25;2.97;;;;;;;;;;6132982;23;20018;-45
2023/03/02 02:26:21;;;;;;;10.98;2.70;;;;;;;;;;6129027;23;20538;-44
2023/03/02 02:28:56;;;;;;;11.75;2.90;;;;;;;;;;6132455;23;20382;-45
2023/03/02 02:31:26;;;;;;;7.43;2.30;;;;;;;;;;6133894;23;20500;-42
2023/03/02 02:33:56;;;;;;;11.77;2.92;;;;;;;;;;6126502;23;20013;-42
2023/03/02 02:36:26;;;;;;;12.25;2.97;;;;;;;;;;6133750;23;20464;-42
2023/03/02 02:38:55;;;;;;;12.98;2.88;;;;;;;;;;6132094;23;20056;-42
2023/03/02 02:41:27;;;;;;;10.57;3.40;;;;;;;;;;6124536;23;20261;-43
2023/03/02 02:43:56;;;;;;;16.73;3.70;;;;;;;;;;6130499;23;20024;-43
2023/03/02 02:46:24;;;;;;;12.02;2.90;;;;;;;;;;6128619;23;20457;-44
2023/03/02 02:48:52;;;;;;;10.23;2.72;;;;;;;;;;6126865;23;20444;-42
2023/03/02 02:51:22;;;;;;;8.52;3.17;;;;;;;;;;6129460;23;20021;-42
2023/03/02 02:53:57;;;;;;;10.65;3.20;;;;;;;;;;6123356;23;20014;-42
2023/03/02 02:56:27;;;;;;;10.70;2.53;;;;;;;;;;6103090;23;20017;-42
2023/03/02 02:58:56;;;;;;;10.90;2.60;;;;;;;;;;6132847;23;20017;-43
2023/03/02 03:01:25;;;;;;;10.20;2.72;;;;;;;;;;6132640;23;20072;-45
2023/03/02 03:03:53;;;;;;;14.07;2.92;;;;;;;;;;6130108;23;20013;-42
2023/03/02 03:06:24;;;;;;;8.77;2.97;;;;;;;;;;6131724;23;20097;-46
2023/03/02 03:08:55;;;;;;;12.57;3.03;;;;;;;;;;6130553;23;20412;-44
2023/03/02 03:11:25;;;;;;;8.93;2.65;;;;;;;;;;6129034;23;20059;-44
2023/03/02 03:13:56;;;;;;;10.70;2.67;;;;;;;;;;6122943;23;20024;-43
2023/03/02 03:16:25;;;;;;;10.68;2.13;;;;;;;;;;6132293;23;20491;-42
2023/03/02 03:18:53;;;;;;;9.35;2.47;;;;;;;;;;6129827;23;20590;-44
2023/03/02 03:21:21;;;;;;;10.60;2.90;;;;;;;;;;6134789;23;20101;-42
2023/03/02 03:23:48;;;;;;;9.35;2.67;;;;;;;;;;6112610;23;20231;-43
2023/03/02 03:26:16;;;;;;;7.68;2.50;;;;;;;;;;6134617;23;20092;-43
2023/03/02 03:28:44;;;;;;;9.82;2.45;;;;;;;;;;6130106;23;20412;-42
2023/03/02 03:31:13;;;;;;;11.13;2.55;;;;;;;;;;6131119;23;20088;-43
2023/03/02 03:33:41;;;;;;;10.40;2.80;;;;;;;;;;6126798;23;20031;-44
2023/03/02 03:36:08;;;;;;;9.48;2.80;;;;;;;;;;6129073;23;20075;-43
2023/03/02 03:38:36;;;;;;;9.40;2.45;;;;;;;;;;6136090;23;20105;-45
2023/03/02 03:41:04;;;;;;;8.82;2.88;;;;;;;;;;6131271;23;20068;-44
2023/03/02 03:43:32;;;;;;;9.90;2.50;;;;;;;;;;6133761;23;20020;-43
2023/03/02 03:45:59;;;;;;;9.60;2.43;;;;;;;;;;6127566;23;20067;-42
2023/03/02 03:48:29;;;;;;;10.90;3.70;;;;;;;;;;6132689;23;20100;-44
2023/03/02 03:50:59;;;;;;;12.45;3.15;;;;;;;;;;6121370;23;20460;-42
2023/03/02 03:53:28;;;;;;;7.78;2.53;;;;;;;;;;6130154;23;20017;-43
2023/03/02 03:55:56;;;;;;;8.88;2.47;;;;;;;;;;6126947;23;20017;-42
2023/03/02 03:58:27;;;;;;;8.40;3.50;;;;;;;;;;6133086;23;20470;-43
2023/03/02 04:00:55;;;;;;;6.78;2.67;;;;;;;;;;6122467;23;20038;-43
2023/03/02 04:03:23;;;;;;;10.57;3.03;;;;;;;;;;6130533;23;20048;-41
2023/03/02 04:05:52;;;;;;;8.07;2.60;;;;;;;;;;6138619;23;20021;-42
2023/03/02 04:08:19;;;;;;;6.82;2.30;;;;;;;;;;6119831;23;20698;-44
2023/03/02 04:10:47;;;;;;;8.07;2.60;;;;;;;;;;6133345;23;20100;-43
2023/03/02 04:13:14;;;;;;;9.00;2.05;;;;;;;;;;6123396;23;20353;-42
2023/03/02 04:15:42;;;;;;;6.55;2.15;;;;;;;;;;6131175;23;20490;-42
2023/03/02 04:18:13;;;;;;;10.73;2.50;;;;;;;;;;6131029;23;20041;-42
2023/03/02 04:20:40;;;;;;;6.22;2.17;;;;;;;;;;6127003;23;20029;-41
2023/03/02 04:23:10;;;;;;;5.50;1.83;;;;;;;;;;6132283;23;20024;-42
2023/03/02 04:25:38;;;;;;;5.43;1.60;;;;;;;;;;6130687;23;20090;-43
2023/03/02 04:28:05;;;;;;;7.80;2.10;;;;;;;;;;6127481;23;20013;-43
2023/03/02 04:30:33;;;;;;;6.95;1.73;;;;;;;;;;6118032;23;20055;-45
2023/03/02 04:33:01;;;;;;;5.35;1.67;;;;;;;;;;6123436;23;20125;-43
2023/03/02 04:35:28;;;;;;;5.47;1.70;;;;;;;;;;6129246;23;20118;-41
2023/03/02 04:37:56;;;;;;;5.05;1.58;;;;;;;;;;6113493;23;20100;-43
2023/03/02 04:40:25;;;;;;;6.30;1.90;;;;;;;;;;6129845;23;20014;-41
2023/03/02 04:42:53;;;;;;;5.03;1.48;;;;;;;;;;6129740;23;20045;-42
2023/03/02 04:45:21;;;;;;;5.13;1.58;;;;;;;;;;6133715;23;20022;-41
2023/03/02 04:47:48;;;;;;;6.00;1.90;;;;;;;;;;6104257;23;20018;-42
2023/03/02 04:50:16;;;;;;;5.57;1.63;;;;;;;;;;6097889;23;20452;-41
2023/03/02 04:52:44;;;;;;;5.28;1.55;;;;;;;;;;6127879;23;20043;-42
2023/03/02 04:55:16;;;;;;;6.30;1.58;;;;;;;;;;6130623;23;20014;-44
2023/03/02 04:57:45;;;;;;;5.90;1.45;;;;;;;;;;6117232;23;20076;-44
2023/03/02 05:00:13;;;;;;;5.83;1.70;;;;;;;;;;6103528;23;20014;-42
2023/03/02 05:02:41;;;;;;;6.10;1.60;;;;;;;;;;6132741;23;20444;-43
2023/03/02 05:05:10;;;;;;;6.30;1.65;;;;;;;;;;6122138;23;20528;-42
2023/03/02 05:07:38;;;;;;;5.20;1.50;;;;;;;;;;6134899;23;20105;-41
2023/03/02 05:10:06;;;;;;;5.97;1.77;;;;;;;;;;6129325;23;20077;-41
2023/03/02 05:12:53;;;;;;;6.67;1.70;;;;;;;;;;6131992;23;20017;-42
2023/03/02 05:15:23;;;;;;;5.88;1.42;;;;;;;;;;6120099;23;20096;-43
2023/03/02 05:17:50;;;;;;;5.80;1.30;;;;;;;;;;6134247;23;20032;-42
2023/03/02 05:20:19;;;;;;;6.10;1.88;;;;;;;;;;6129483;23;20018;-42
2023/03/02 05:22:47;;;;;;;6.00;2.08;;;;;;;;;;6132664;23;20569;-43
2023/03/02 05:25:14;;;;;;;5.10;1.47;;;;;;;;;;6127733;23;20013;-43
2023/03/02 05:27:42;;;;;;;7.53;2.00;;;;;;;;;;6132783;23;20109;-43
2023/03/02 05:30:10;;;;;;;5.88;1.88;;;;;;;;;;6130461;23;20452;-42
2023/03/02 05:32:39;;;;;;;6.72;2.08;;;;;;;;;;6137787;23;20013;-42
2023/03/02 05:35:07;;;;;;;6.65;2.45;;;;;;;;;;6123807;23;20221;-42
2023/03/02 05:37:38;;;;;;;8.50;2.90;;;;;;;;;;6133653;23;20048;-43
2023/03/02 05:40:08;;;;;;;6.78;2.40;;;;;;;;;;6099528;23;20436;-43
2023/03/02 05:42:35;;;;;;;9.23;3.03;;;;;;;;;;6132411;23;20045;-42
2023/03/02 05:45:03;;;;;;;10.73;2.85;;;;;;;;;;6131730;23;20048;-44
2023/03/02 05:47:31;;;;;;;8.32;3.17;;;;;;;;;;6134135;23;20068;-41
2023/03/02 05:50:00;;;;;;;11.13;3.20;;;;;;;;;;6127535;23;20507;-43
2023/03/02 05:52:27;;;;;;;10.07;3.85;;;;;;;;;;6109717;23;20064;-44
2023/03/02 05:54:55;;;;;;;10.93;4.18;;;;;;;;;;6130732;23;20014;-41
2023/03/02 05:57:25;;;;;;;10.82;3.38;;;;;;;;;;6131413;23;20753;-41
2023/03/02 05:59:53;;;;;;;10.02;3.92;;;;;;;;;;6132423;23;20072;-42
2023/03/02 06:02:21;;;;;;;10.83;4.30;;;;;;;;;;6138543;23;20064;-43
2023/03/02 06:04:50;;;;;;;11.18;4.30;;;;;;;;;;6129622;23;20391;-43
2023/03/02 06:07:19;;;;;;;12.45;3.97;;;;;;;;;;6132222;23;20092;-41
2023/03/02 06:09:47;;;;;;;13.45;4.65;;;;;;;;;;6134032;23;20017;-44
2023/03/02 06:12:14;;;;;;;10.88;3.97;;;;;;;;;;6128947;23;20104;-41
2023/03/02 06:14:42;;;;;;;11.43;5.07;;;;;;;;;;6128881;23;20048;-44
2023/03/02 06:17:10;;;;;;;15.15;6.68;;;;;;;;;;6129880;23;20455;-41
2023/03/02 06:19:37;;;;;;;14.20;6.05;;;;;;;;;;6130581;23;20180;-46
2023/03/02 06:22:05;;;;;;;14.45;5.40;;;;;;;;;;6132105;23;20518;-43
2023/03/02 06:24:34;;;;;;;12.75;5.57;;;;;;;;;;6128405;23;20047;-43
2023/03/02 06:27:02;;;;;;;13.63;5.57;;;;;;;;;;6128270;23;20072;-42
2023/03/02 06:29:30;;;;;;;14.57;5.22;;;;;;;;;;6106975;23;20344;-45
2023/03/02 06:31:57;;;;;;;13.73;5.22;;;;;;;;;;6122914;23;20302;-45
2023/03/02 06:34:25;;;;;;;12.93;5.53;;;;;;;;;;6131993;23;20022;-44
2023/03/02 06:36:54;;;;;;;14.63;6.00;;;;;;;;;;6128541;23;20068;-41
2023/03/02 06:39:22;;;;;;;21.07;5.80;;;;;;;;;;6135050;23;20017;-41
2023/03/02 06:41:50;;;;;;;16.17;6.43;;;;;;;;;;6127099;23;20018;-45
2023/03/02 06:44:18;;;;;;;16.52;5.95;;;;;;;;;;6132055;23;20021;-41
2023/03/02 06:46:46;;;;;;;15.60;5.50;;;;;;;;;;6121979;23;20120;-44
2023/03/02 06:49:13;;;;;;;14.00;6.38;;;;;;;;;;6131482;23;20025;-43
2023/03/02 06:51:41;;;;;;;20.23;6.20;;;;;;;;;;6128414;23;20436;-43
2023/03/02 06:54:09;;;;;;;18.30;6.20;;;;;;;;;;6128098;23;20027;-45
2023/03/02 06:56:36;;;;;;;15.02;5.80;;;;;;;;;;6126856;23;20014;-43
2023/03/02 06:59:09;;;;;;;18.52;6.35;;;;;;;;;;6127657;23;20017;-45
2023/03/02 07:01:36;;;;;;;15.15;6.00;;;;;;;;;;6135383;23;20024;-44
2023/03/02 07:04:04;;;;;;;16.10;6.90;;;;;;;;;;6099835;23;20025;-44
2023/03/02 07:06:32;;;;;;;17.20;6.63;;;;;;;;;;6129508;23;20113;-44
2023/03/02 07:09:00;;;;;;;18.67;6.78;;;;;;;;;;6130416;23;20021;-46
2023/03/02 07:11:28;;;;;;;16.10;6.35;;;;;;;;;;6129643;23;20064;-42
2023/03/02 07:13:56;;;;;;;16.38;6.88;;;;;;;;;;6132886;23;20084;-45
2023/03/02 07:16:25;;;;;;;17.63;6.97;;;;;;;;;;6128448;23;20336;-42
2023/03/02 07:18:52;;;;;;;18.92;7.80;;;;;;;;;;6132619;23;20021;-44
2023/03/02 07:21:20;;;;;;;20.95;6.80;;;;;;;;;;6097792;23;20025;-42
2023/03/02 07:23:48;;;;;;;16.30;7.38;;;;;;;;;;6136294;23;20021;-41
2023/03/02 07:26:16;;;;;;;21.67;8.15;;;;;;;;;;6128491;23;20017;-42
2023/03/02 07:28:43;;;;;;;16.90;7.73;;;;;;;;;;6098502;23;20471;-42
2023/03/02 07:31:11;;;;;;;17.85;7.47;;;;;;;;;;6102769;23;20646;-42
2023/03/02 07:33:40;;;;;;;16.48;7.22;;;;;;;;;;6127608;23;20028;-41
2023/03/02 07:36:08;;;;;;;16.98;6.97;;;;;;;;;;6108485;23;20032;-42
2023/03/02 07:38:36;;;;;;;17.50;7.10;;;;;;;;;;6126818;23;20436;-42
2023/03/02 07:41:06;;;;;;;19.50;7.70;;;;;;;;;;6129869;23;20017;-42
2023/03/02 07:43:35;;;;;;;17.42;7.53;;;;;;;;;;6131999;23;20396;-43
2023/03/02 07:46:03;;;;;;;18.63;6.93;;;;;;;;;;6128178;23;20021;-42
2023/03/02 07:48:31;;;;;;;16.80;7.78;;;;;;;;;;6127190;23;20045;-41
2023/03/02 07:51:02;;;;;;;18.02;7.47;;;;;;;;;;6133165;23;20464;-41
2023/03/02 07:53:30;;;;;;;18.97;6.83;;;;;;;;;;6123913;23;20089;-44
2023/03/02 07:55:59;;;;;;;16.80;7.70;;;;;;;;;;6132994;23;20441;-43
2023/03/02 07:58:27;;;;;;;15.52;6.35;;;;;;;;;;6105258;23;20024;-42
2023/03/02 08:00:55;;;;;;;15.73;7.30;;;;;;;;;;6129247;23;20427;-44
2023/03/02 08:03:23;;;;;;;17.85;7.07;;;;;;;;;;6134957;23;20025;-42
2023/03/02 08:05:51;;;;;;;17.07;6.90;;;;;;;;;;6111076;23;20357;-42
2023/03/02 08:08:20;;;;;;;17.10;7.05;;;;;;;;;;6131429;23;20028;-41
2023/03/02 08:10:48;;;;;;;17.70;6.65;;;;;;;;;;6131365;23;20022;-42
2023/03/02 08:13:15;;;;;;;17.02;7.30;;;;;;;;;;6122789;23;20226;-45
2023/03/02 08:15:43;;;;;;;25.80;7.38;;;;;;;;;;6124003;23;20510;-44
2023/03/02 08:18:10;;;;;;;17.53;7.63;;;;;;;;;;6132750;23;20018;-43
2023/03/02 08:20:38;;;;;;;16.23;6.95;;;;;;;;;;6125945;23;20419;-41
2023/03/02 08:23:06;;;;;;;17.25;7.68;;;;;;;;;;6128030;23;20069;-43
2023/03/02 08:25:37;;;;;;;20.15;7.82;;;;;;;;;;6132314;23;20052;-41
2023/03/02 08:28:05;;;;;;;28.75;8.52;;;;;;;;;;6127242;23;20381;-42
2023/03/02 08:30:33;;;;;;;19.27;7.90;;;;;;;;;;6124373;23;20017;-43
2023/03/02 08:33:00;;;;;;;16.25;6.82;;;;;;;;;;6126299;23;20328;-46
2023/03/02 08:35:33;;;;;;;18.15;6.90;;;;;;;;;;6132219;23;20017;-42
2023/03/02 08:38:01;;;;;;;17.35;7.28;;;;;;;;;;6125356;23;20442;-41
2023/03/02 08:40:29;;;;;;;18.35;7.63;;;;;;;;;;6130117;23;20017;-41
2023/03/02 08:42:58;;;;;;;18.77;6.97;;;;;;;;;;6127462;23;20674;-41
2023/03/02 08:45:25;;;;;;;18.38;7.95;;;;;;;;;;6131898;23;20056;-41
2023/03/02 08:47:53;;;;;;;20.00;7.65;;;;;;;;;;6127015;23;20024;-41
2023/03/02 08:50:21;;;;;;;21.00;7.60;;;;;;;;;;6130083;23;20018;-43
2023/03/02 08:52:49;;;;;;;21.08;8.63;;;;;;;;;;6131201;23;20017;-41
2023/03/02 08:55:17;;;;;;;20.13;8.90;;;;;;;;;;6124257;23;20017;-42
2023/03/02 08:57:45;;;;;;;21.23;8.35;;;;;;;;;;6126729;23;20024;-41
2023/03/02 09:00:15;;;;;;;25.08;8.27;;;;;;;;;;6117514;23;20121;-41
2023/03/02 09:02:43;;;;;;;19.38;7.88;;;;;;;;;;6133012;23;20024;-44
2023/03/02 09:05:11;;;;;;;22.60;8.75;;;;;;;;;;6123280;23;20134;-41
2023/03/02 09:07:38;;;;;;;20.50;8.13;;;;;;;;;;6127629;23;20448;-41
2023/03/02 09:10:06;;;;;;;23.02;8.65;;;;;;;;;;6121882;23;20456;-41
2023/03/02 09:12:34;;;;;;;22.73;9.02;;;;;;;;;;6131956;23;20276;-41
2023/03/02 09:15:01;;;;;;;20.33;8.18;;;;;;;;;;6126372;23;20017;-41
2023/03/02 09:17:31;;;;;;;21.70;8.80;;;;;;;;;;6122574;23;20052;-42
2023/03/02 09:19:59;;;;;;;22.83;8.73;;;;;;;;;;6128701;23;20116;-43
2023/03/02 09:22:27;;;;;;;22.55;8.82;;;;;;;;;;6130872;23;20022;-42
2023/03/02 09:24:55;;;;;;;19.83;8.15;;;;;;;;;;6074987;23;20033;-42
2023/03/02 09:27:22;;;;;;;24.45;9.90;;;;;;;;;;6114470;23;20017;-42
2023/03/02 09:29:51;;;;;;;22.45;9.60;;;;;;;;;;6110569;23;20064;-41
2023/03/02 09:32:19;;;;;;;20.87;8.73;;;;;;;;;;6118075;23;20045;-41
2023/03/02 09:34:48;;;;;;;25.20;8.88;;;;;;;;;;6084833;23;20100;-41
2023/03/02 09:37:16;;;;;;;25.45;9.40;;;;;;;;;;6106704;23;20595;-41
2023/03/02 09:39:44;;;;;;;22.30;9.23;;;;;;;;;;6117814;23;20025;-42
2023/03/02 09:42:29;;;;;;;22.42;9.55;;;;;;;;;;6116314;23;20017;-42
2023/03/02 09:45:17;;;;;;;25.07;9.47;;;;;;;;;;6112050;23;20038;-41
2023/03/02 09:47:50;;;;;;;20.08;8.93;;;;;;;;;;6120438;23;20676;-41
2023/03/02 09:50:31;;;;;;;20.80;8.85;;;;;;;;;;6111644;23;20032;-42
2023/03/02 09:53:15;;;;;;;24.80;8.60;;;;;;;;;;6115753;23;20072;-41
2023/03/02 09:55:44;;;;;;;21.23;8.77;;;;;;;;;;6126706;23;20394;-41
2023/03/02 09:58:14;;;;;;;23.17;10.00;;;;;;;;;;6126360;23;20017;-43
2023/03/02 10:00:42;;;;;;;24.15;8.93;;;;;;;;;;6132554;23;20071;-41
2023/03/02 10:03:11;;;;;;;21.60;9.07;;;;;;;;;;6129835;23;20048;-41
2023/03/02 10:05:46;;;;;;;24.00;10.35;;;;;;;;;;6130972;23;20018;-42
2023/03/02 10:08:14;;;;;;;23.98;9.20;;;;;;;;;;6095089;23;20400;-41
2023/03/02 10:10:44;;;;;;;21.37;9.73;;;;;;;;;;6128454;23;20018;-42
2023/03/02 10:13:18;;;;;;;22.55;8.65;;;;;;;;;;6130419;23;20013;-41
2023/03/02 10:15:52;;;;;;;24.75;9.65;;;;;;;;;;6127078;23;20080;-42
2023/03/02 10:18:25;;;;;;;20.00;8.60;;;;;;;;;;6130319;23;20038;-41
2023/03/02 10:20:57;;;;;;;21.83;9.43;;;;;;;;;;6135072;23;20018;-42
2023/03/02 10:23:35;;;;;;;21.10;9.43;;;;;;;;;;6129154;23;20018;-41
2023/03/02 10:26:05;;;;;;;20.92;8.63;;;;;;;;;;6133388;23;20051;-41
2023/03/02 10:28:35;;;;;;;21.42;8.90;;;;;;;;;;6120808;23;20013;-42
2023/03/02 10:31:07;;;;;;;22.15;8.63;;;;;;;;;;6106827;23;20013;-42
2023/03/02 10:33:36;;;;;;;22.50;9.07;;;;;;;;;;6125715;23;20455;-41
2023/03/02 10:36:15;;;;;;;21.20;9.30;;;;;;;;;;6133715;23;20037;-41
2023/03/02 10:38:43;;;;;;;24.38;9.13;;;;;;;;;;6123380;23;20048;-43
2023/03/02 10:41:14;;;;;;;23.80;9.05;;;;;;;;;;6133404;23;20072;-41
2023/03/02 10:43:45;;;;;;;26.02;10.10;;;;;;;;;;6130639;23;20181;-43
2023/03/02 10:46:13;;;;;;;27.67;10.45;;;;;;;;;;6128416;23;20104;-42
2023/03/02 10:48:49;;;;;;;22.40;9.10;;;;;;;;;;6130984;23;20064;-41
2023/03/02 10:51:26;;;;;;;23.77;9.45;;;;;;;;;;6126528;23;20026;-42
2023/03/02 10:54:04;;;;;;;22.35;9.55;;;;;;;;;;6132319;23;20088;-43
2023/03/02 10:56:32;;;;;;;22.02;9.13;;;;;;;;;;6127337;23;20025;-41
2023/03/02 10:59:03;;;;;;;23.08;9.07;;;;;;;;;;6129096;23;20344;-43
2023/03/02 11:01:31;;;;;;;25.60;10.70;;;;;;;;;;6131594;23;20018;-42
2023/03/02 11:04:01;;;;;;;21.90;9.63;;;;;;;;;;6129034;23;20021;-42
2023/03/02 11:06:30;;;;;;;22.70;10.10;;;;;;;;;;6131906;23;20021;-41
2023/03/02 11:09:13;;;;;;;25.27;10.02;;;;;;;;;;6007067;23;20380;-44
2023/03/02 11:11:48;;;;;;;28.42;10.85;;;;;;;;;;6098770;23;20060;-42
2023/03/02 11:14:17;;;;;;;25.23;10.43;;;;;;;;;;6102434;23;20507;-43
2023/03/02 11:16:46;;;;;;;23.30;10.07;;;;;;;;;;6100963;23;20017;-42
2023/03/02 11:19:15;;;;;;;26.23;10.10;;;;;;;;;;6095410;23;20021;-42
2023/03/02 11:21:47;;;;;;;24.33;9.82;;;;;;;;;;6110810;23;20076;-44
2023/03/02 11:24:17;;;;;;;23.67;10.30;;;;;;;;;;6080044;23;20330;-41
2023/03/02 11:26:46;;;;;;;19.73;9.07;;;;;;;;;;6105666;23;20025;-43
2023/03/02 11:29:21;;;;;;;22.58;10.50;;;;;;;;;;6095949;23;20509;-45
2023/03/02 11:31:50;;;;;;;20.63;9.48;;;;;;;;;;6107752;23;20017;-42
2023/03/02 11:34:41;;;;;;;23.38;10.50;;;;;;;;;;6096062;23;20052;-41
2023/03/02 11:37:34;;;;;;;22.60;10.45;;;;;;;;;;6027566;23;20033;-42
2023/03/02 11:40:26;;;;;;;22.93;9.90;;;;;;;;;;6088598;23;20081;-43
2023/03/02 11:43:14;;;;;;;24.95;10.18;;;;;;;;;;6082167;23;20041;-42
2023/03/02 11:45:43;;;;;;;23.45;9.30;;;;;;;;;;6088387;23;20022;-41
2023/03/02 11:48:16;;;;;;;22.10;9.82;;;;;;;;;;6038855;23;20022;-41
2023/03/02 11:50:55;;;;;;;26.23;9.52;;;;;;;;;;6093014;23;20021;-43
2023/03/02 11:53:28;;;;;;;25.07;9.83;;;;;;;;;;6111965;23;20018;-41
2023/03/02 11:55:56;;;;;;;23.50;9.90;;;;;;;;;;6088277;23;20494;-43
2023/03/02 11:58:26;;;;;;;22.35;9.02;;;;;;;;;;6100509;23;20044;-42
2023/03/02 12:00:54;;;;;;;22.17;8.98;;;;;;;;;;6073321;23;20489;-40
2023/03/02 12:03:39;;;;;;;24.00;9.57;;;;;;;;;;6094153;23;20084;-42
2023/03/02 12:06:08;;;;;;;22.27;9.53;;;;;;;;;;6075092;23;20021;-42
2023/03/02 12:08:39;;;;;;;20.50;9.45;;;;;;;;;;6093704;23;20029;-41
2023/03/02 12:11:08;;;;;;;20.42;9.32;;;;;;;;;;6081321;23;20468;-42
2023/03/02 12:13:36;;;;;;;21.10;9.55;;;;;;;;;;6112967;23;20017;-42
2023/03/02 12:16:05;;;;;;;21.10;8.93;;;;;;;;;;6078997;23;20400;-44
2023/03/02 12:18:54;;;;;;;21.43;9.93;;;;;;;;;;6070047;23;20523;-42
2023/03/02 12:21:22;;;;;;;22.85;9.70;;;;;;;;;;6111712;23;20028;-40
2023/03/02 12:23:58;;;;;;;24.98;8.50;;;;;;;;;;6108001;23;20028;-43
2023/03/02 12:26:36;;;;;;;20.48;9.32;;;;;;;;;;6096498;23;20520;-40
2023/03/02 12:29:06;;;;;;;27.88;9.40;;;;;;;;;;6101283;23;20101;-41
2023/03/02 12:31:40;;;;;;;22.63;9.93;;;;;;;;;;6091643;23;20017;-43
2023/03/02 12:34:35;;;;;;;21.90;9.27;;;;;;;;;;6095174;23;20076;-41
2023/03/02 12:37:07;;;;;;;25.13;9.30;;;;;;;;;;6041277;23;20029;-41
2023/03/02 12:39:59;;;;;;;19.50;8.38;;;;;;;;;;6112046;23;20013;-40
2023/03/02 12:42:40;;;;;;;19.15;8.40;;;;;;;;;;6105885;23;20021;-41
2023/03/02 12:45:14;;;;;;;23.37;8.80;;;;;;;;;;6089529;23;20455;-41
2023/03/02 12:47:45;;;;;;;20.45;8.90;;;;;;;;;;6100438;23;20022;-43
2023/03/02 12:50:18;;;;;;;22.63;8.98;;;;;;;;;;6096485;23;20026;-41
2023/03/02 12:52:56;;;;;;;18.38;8.52;;;;;;;;;;6104582;23;20017;-41
2023/03/02 12:55:25;;;;;;;17.42;8.20;;;;;;;;;;6101310;23;20277;-40
2023/03/02 12:57:54;;;;;;;19.13;8.43;;;;;;;;;;6094956;23;20356;-43
2023/03/02 13:00:23;;;;;;;18.70;8.13;;;;;;;;;;6107062;23;20842;-43
2023/03/02 13:02:53;;;;;;;19.80;8.60;;;;;;;;;;6094860;23;20401;-42
2023/03/02 13:05:23;;;;;;;24.35;8.50;;;;;;;;;;6098192;23;20107;-42
2023/03/02 13:07:55;;;;;;;19.38;8.73;;;;;;;;;;6100838;23;20072;-43
2023/03/02 13:10:28;;;;;;;19.27;8.40;;;;;;;;;;6106227;23;20702;-41
2023/03/02 13:12:56;;;;;;;20.58;8.30;;;;;;;;;;6099754;23;20126;-40
2023/03/02 13:15:24;;;;;;;18.70;8.23;;;;;;;;;;6092682;23;20064;-41
2023/03/02 13:17:53;;;;;;;18.70;9.15;;;;;;;;;;6107805;23;20018;-40
2023/03/02 13:20:21;;;;;;;19.70;8.50;;;;;;;;;;6101163;23;20013;-41
2023/03/02 13:22:50;;;;;;;18.30;8.17;;;;;;;;;;6093262;23;20027;-40
2023/03/02 13:25:22;;;;;;;20.00;8.88;;;;;;;;;;6085980;23;20052;-40
2023/03/02 13:27:55;;;;;;;19.58;8.43;;;;;;;;;;6101440;23;20052;-40
2023/03/02 13:30:24;;;;;;;18.50;7.70;;;;;;;;;;6095615;23;20013;-41
2023/03/02 13:32:58;;;;;;;17.15;8.68;;;;;;;;;;6106626;23;20060;-40
2023/03/02 13:35:27;;;;;;;20.10;8.67;;;;;;;;;;6097097;23;20017;-42
2023/03/02 13:37:57;;;;;;;16.98;8.05;;;;;;;;;;6092322;23;20017;-42
2023/03/02 13:40:38;;;;;;;17.35;7.82;;;;;;;;;;6110855;23;20076;-40
2023/03/02 13:43:36;;;;;;;20.25;7.47;;;;;;;;;;6096978;23;20396;-43
2023/03/02 13:46:05;;;;;;;19.10;7.95;;;;;;;;;;6085037;23;20169;-41
2023/03/02 13:48:33;;;;;;;16.77;8.70;;;;;;;;;;6101343;23;20345;-40
2023/03/02 13:51:02;;;;;;;17.45;8.13;;;;;;;;;;6089194;23;20432;-41
2023/03/02 13:53:33;;;;;;;18.77;8.48;;;;;;;;;;6108111;23;20526;-41
2023/03/02 13:56:01;;;;;;;19.25;9.02;;;;;;;;;;6085451;23;20092;-42
2023/03/02 13:58:29;;;;;;;18.88;8.45;;;;;;;;;;6105918;23;20014;-41
2023/03/02 14:00:58;;;;;;;21.40;8.23;;;;;;;;;;6089799;23;20045;-41
2023/03/02 14:03:28;;;;;;;17.48;7.70;;;;;;;;;;6107836;23;20037;-40
2023/03/02 14:05:56;;;;;;;21.40;7.63;;;;;;;;;;6078523;23;20512;-42
2023/03/02 14:08:24;;;;;;;18.40;7.53;;;;;;;;;;6098083;23;20017;-41
2023/03/02 14:10:52;;;;;;;16.10;7.68;;;;;;;;;;6093351;23;20049;-41
2023/03/02 14:13:22;;;;;;;15.70;7.20;;;;;;;;;;6097095;23;20377;-42
2023/03/02 14:15:51;;;;;;;16.77;7.32;;;;;;;;;;6083776;23;20060;-41
2023/03/02 14:18:30;;;;;;;16.65;7.15;;;;;;;;;;6107400;23;20018;-41
2023/03/02 14:20:58;;;;;;;16.30;7.45;;;;;;;;;;6100524;23;20342;-43
2023/03/02 14:23:26;;;;;;;14.57;6.85;;;;;;;;;;6110423;23;20835;-44
2023/03/02 14:25:55;;;;;;;16.37;7.30;;;;;;;;;;6092212;23;20105;-44
2023/03/02 14:28:26;;;;;;;14.35;7.03;;;;;;;;;;6094982;23;20522;-42
2023/03/02 14:30:55;;;;;;;18.92;7.40;;;;;;;;;;6101447;23;20435;-41
2023/03/02 14:33:23;;;;;;;17.92;7.28;;;;;;;;;;6091620;23;20408;-41
2023/03/02 14:35:54;;;;;;;13.65;6.60;;;;;;;;;;6098289;23;20052;-42
2023/03/02 14:38:22;;;;;;;17.87;6.20;;;;;;;;;;6094503;23;20618;-41
2023/03/02 14:40:50;;;;;;;14.43;6.53;;;;;;;;;;6110967;23;20013;-41
2023/03/02 14:43:20;;;;;;;11.82;5.38;;;;;;;;;;6086096;23;20018;-40
2023/03/02 14:45:51;;;;;;;13.43;6.40;;;;;;;;;;6098312;23;20021;-41
2023/03/02 14:48:19;;;;;;;11.55;5.55;;;;;;;;;;6099752;23;20092;-41
2023/03/02 14:50:48;;;;;;;13.87;6.30;;;;;;;;;;6095691;23;20013;-42